JLY1207 SAAR-SBGR
Flight info
| Callsign | JLY1207 |
|---|---|
| Flight time | N/A |
| Altitude | 37000 |
| Route | DABOT DCT PAR UT682 PULEN UM400 UBMOP DCT PUNTO DCT XONUG UZ121 BUXUK |
| Aircraft | B737/M-SDFGIKRWY/LB1 |
Departure
| Time | N/A |
|---|---|
| Airport | Rosario Islas Malvinas International Airport (SAAR) |
Arrival
| Time | 2026-05-07 14:24 |
|---|---|
| Airport | São Paulo/Guarulhos–Governor André Franco Montoro International Airport (SBGR) |
| Time | Latitude | Longitude | Altitude | Speed | Heading |
|---|---|---|---|---|---|
| 2026-05-07 13:56 | -24.38190 | -48.21164 | 37067 ft | 504 kts | 52° |
| 2026-05-07 13:56 | -24.33560 | -48.15461 | 37072 ft | 498 kts | 36° |
| 2026-05-07 13:57 | -24.27730 | -48.11354 | 37075 ft | 495 kts | 25° |
| 2026-05-07 13:57 | -24.21631 | -48.07850 | 37072 ft | 494 kts | 23° |
| 2026-05-07 13:58 | -24.15524 | -48.04420 | 37077 ft | 494 kts | 24° |
| 2026-05-07 13:58 | -24.09406 | -48.00927 | 37092 ft | 494 kts | 24° |
| 2026-05-07 13:58 | -24.06394 | -47.99185 | 36931 ft | 493 kts | 25° |
| 2026-05-07 13:59 | -24.03352 | -47.97413 | 36488 ft | 488 kts | 25° |
| 2026-05-07 13:59 | -24.00381 | -47.95674 | 35954 ft | 483 kts | 25° |
| 2026-05-07 13:59 | -23.97446 | -47.93954 | 35297 ft | 481 kts | 25° |
| 2026-05-07 13:59 | -23.94517 | -47.92236 | 34583 ft | 481 kts | 25° |
| 2026-05-07 14:00 | -23.91555 | -47.90498 | 33818 ft | 480 kts | 26° |
| 2026-05-07 14:00 | -23.88585 | -47.88759 | 33048 ft | 480 kts | 26° |
| 2026-05-07 14:00 | -23.85594 | -47.87008 | 32263 ft | 480 kts | 26° |
| 2026-05-07 14:00 | -23.82663 | -47.85287 | 31450 ft | 481 kts | 27° |
| 2026-05-07 14:01 | -23.79780 | -47.83440 | 30640 ft | 481 kts | 30° |
| 2026-05-07 14:01 | -23.77003 | -47.81393 | 29807 ft | 482 kts | 34° |
| 2026-05-07 14:01 | -23.74392 | -47.79182 | 29309 ft | 476 kts | 38° |
| 2026-05-07 14:01 | -23.71866 | -47.76825 | 28773 ft | 479 kts | 40° |
| 2026-05-07 14:02 | -23.69385 | -47.74360 | 28194 ft | 480 kts | 41° |
| 2026-05-07 14:02 | -23.66989 | -47.71887 | 27612 ft | 475 kts | 42° |
| 2026-05-07 14:02 | -23.64635 | -47.69408 | 27168 ft | 466 kts | 43° |
| 2026-05-07 14:02 | -23.62341 | -47.66970 | 27127 ft | 462 kts | 43° |
| 2026-05-07 14:03 | -23.60001 | -47.64482 | 27131 ft | 467 kts | 43° |
| 2026-05-07 14:03 | -23.57688 | -47.62026 | 27129 ft | 468 kts | 43° |
| 2026-05-07 14:03 | -23.55335 | -47.59532 | 27128 ft | 468 kts | 43° |
| 2026-05-07 14:03 | -23.53008 | -47.57073 | 26898 ft | 465 kts | 43° |
| 2026-05-07 14:04 | -23.50704 | -47.54644 | 26300 ft | 460 kts | 43° |
| 2026-05-07 14:04 | -23.48427 | -47.52248 | 25706 ft | 456 kts | 43° |
| 2026-05-07 14:04 | -23.46158 | -47.49865 | 25113 ft | 451 kts | 43° |
| 2026-05-07 14:04 | -23.43905 | -47.47501 | 24523 ft | 446 kts | 42° |
| 2026-05-07 14:05 | -23.41689 | -47.45178 | 23943 ft | 441 kts | 42° |
| 2026-05-07 14:05 | -23.39492 | -47.42877 | 23362 ft | 436 kts | 42° |
| 2026-05-07 14:05 | -23.37335 | -47.40619 | 23108 ft | 426 kts | 42° |
| 2026-05-07 14:05 | -23.35198 | -47.38383 | 23122 ft | 429 kts | 42° |
| 2026-05-07 14:06 | -23.33038 | -47.36127 | 23126 ft | 434 kts | 43° |
| 2026-05-07 14:06 | -23.30824 | -47.33815 | 23123 ft | 433 kts | 42° |
| 2026-05-07 14:06 | -23.28670 | -47.31566 | 23123 ft | 433 kts | 42° |
| 2026-05-07 14:06 | -23.26485 | -47.29285 | 23124 ft | 434 kts | 42° |
| 2026-05-07 14:07 | -23.24300 | -47.27006 | 23126 ft | 434 kts | 42° |
| 2026-05-07 14:07 | -23.22103 | -47.24715 | 22936 ft | 434 kts | 42° |
| 2026-05-07 14:07 | -23.19952 | -47.22471 | 22609 ft | 426 kts | 42° |
| 2026-05-07 14:07 | -23.17834 | -47.20262 | 22146 ft | 419 kts | 42° |
| 2026-05-07 14:08 | -23.15756 | -47.18097 | 21604 ft | 414 kts | 43° |
| 2026-05-07 14:08 | -23.13696 | -47.15934 | 21066 ft | 410 kts | 44° |
| 2026-05-07 14:08 | -23.11704 | -47.13703 | 20502 ft | 405 kts | 46° |
| 2026-05-07 14:08 | -23.09833 | -47.11500 | 19950 ft | 401 kts | 47° |
| 2026-05-07 14:09 | -23.07955 | -47.09248 | 19395 ft | 396 kts | 47° |
| 2026-05-07 14:09 | -23.06149 | -47.07075 | 18992 ft | 387 kts | 48° |
| 2026-05-07 14:09 | -23.04344 | -47.04906 | 18346 ft | 385 kts | 48° |
| 2026-05-07 14:09 | -23.02545 | -47.02750 | 17762 ft | 382 kts | 48° |
| 2026-05-07 14:10 | -23.00782 | -47.00650 | 17204 ft | 377 kts | 48° |
| 2026-05-07 14:10 | -22.99026 | -46.98569 | 16644 ft | 373 kts | 48° |
| 2026-05-07 14:10 | -22.97258 | -46.96482 | 16199 ft | 366 kts | 48° |
| 2026-05-07 14:10 | -22.95616 | -46.94456 | 15768 ft | 359 kts | 54° |
| 2026-05-07 14:11 | -22.94489 | -46.92055 | 15488 ft | 357 kts | 70° |
| 2026-05-07 14:11 | -22.94015 | -46.89414 | 15260 ft | 364 kts | 88° |
| 2026-05-07 14:11 | -22.94441 | -46.86698 | 15022 ft | 366 kts | 108° |
| 2026-05-07 14:11 | -22.95647 | -46.84269 | 14776 ft | 364 kts | 123° |
| 2026-05-07 14:12 | -22.97236 | -46.82147 | 14440 ft | 356 kts | 129° |
| 2026-05-07 14:12 | -22.98939 | -46.80156 | 13973 ft | 362 kts | 131° |
| 2026-05-07 14:12 | -23.00680 | -46.78202 | 13433 ft | 362 kts | 131° |
| 2026-05-07 14:12 | -23.02416 | -46.76261 | 12904 ft | 358 kts | 131° |
| 2026-05-07 14:13 | -23.04145 | -46.74310 | 12371 ft | 355 kts | 131° |
| 2026-05-07 14:13 | -23.05831 | -46.72387 | 11846 ft | 352 kts | 131° |
| 2026-05-07 14:13 | -23.07508 | -46.70460 | 11318 ft | 349 kts | 130° |
| 2026-05-07 14:13 | -23.09158 | -46.68553 | 10884 ft | 344 kts | 130° |
| 2026-05-07 14:14 | -23.10763 | -46.66696 | 10668 ft | 332 kts | 130° |
| 2026-05-07 14:14 | -23.12319 | -46.64896 | 10553 ft | 317 kts | 130° |
| 2026-05-07 14:14 | -23.13791 | -46.63191 | 10437 ft | 304 kts | 130° |
| 2026-05-07 14:14 | -23.15207 | -46.61548 | 10316 ft | 293 kts | 130° |
| 2026-05-07 14:15 | -23.16586 | -46.59946 | 10053 ft | 287 kts | 129° |
| 2026-05-07 14:15 | -23.17958 | -46.58357 | 9645 ft | 289 kts | 131° |
| 2026-05-07 14:15 | -23.19477 | -46.56947 | 9283 ft | 291 kts | 145° |
| 2026-05-07 14:15 | -23.21395 | -46.56273 | 9089 ft | 287 kts | 177° |
| 2026-05-07 14:16 | -23.23339 | -46.56688 | 8729 ft | 287 kts | 206° |
| 2026-05-07 14:16 | -23.25043 | -46.57803 | 8299 ft | 288 kts | 216° |
| 2026-05-07 14:16 | -23.26693 | -46.59036 | 7991 ft | 285 kts | 216° |
| 2026-05-07 14:16 | -23.28316 | -46.60236 | 7971 ft | 278 kts | 215° |
| 2026-05-07 14:17 | -23.29907 | -46.61390 | 7910 ft | 275 kts | 215° |
| 2026-05-07 14:17 | -23.31508 | -46.62535 | 7661 ft | 272 kts | 215° |
| 2026-05-07 14:17 | -23.33058 | -46.63636 | 7341 ft | 275 kts | 214° |
| 2026-05-07 14:17 | -23.34668 | -46.64780 | 6998 ft | 276 kts | 214° |
| 2026-05-07 14:18 | -23.36282 | -46.65925 | 6648 ft | 276 kts | 214° |
| 2026-05-07 14:18 | -23.37911 | -46.67083 | 6285 ft | 277 kts | 215° |
| 2026-05-07 14:18 | -23.39505 | -46.68181 | 6114 ft | 267 kts | 211° |
| 2026-05-07 14:18 | -23.41172 | -46.68949 | 6046 ft | 251 kts | 192° |
| 2026-05-07 14:19 | -23.42840 | -46.68826 | 5931 ft | 234 kts | 157° |
| 2026-05-07 14:19 | -23.44150 | -46.67896 | 5724 ft | 220 kts | 132° |
| 2026-05-07 14:19 | -23.45112 | -46.66660 | 5555 ft | 210 kts | 122° |
| 2026-05-07 14:19 | -23.45933 | -46.65370 | 5379 ft | 202 kts | 120° |
| 2026-05-07 14:20 | -23.46720 | -46.64093 | 5177 ft | 202 kts | 120° |
| 2026-05-07 14:20 | -23.47268 | -46.62748 | 4980 ft | 191 kts | 92° |
| 2026-05-07 14:20 | -23.47132 | -46.61344 | 4755 ft | 183 kts | 73° |
| 2026-05-07 14:20 | -23.46827 | -46.60015 | 4506 ft | 182 kts | 72° |
| 2026-05-07 14:21 | -23.46521 | -46.58704 | 4270 ft | 171 kts | 72° |
| 2026-05-07 14:21 | -23.46222 | -46.57499 | 4042 ft | 160 kts | 71° |
| 2026-05-07 14:21 | -23.45931 | -46.56378 | 3854 ft | 148 kts | 72° |
| 2026-05-07 14:21 | -23.45657 | -46.55302 | 3656 ft | 149 kts | 71° |
| 2026-05-07 14:22 | -23.45373 | -46.54231 | 3457 ft | 143 kts | 71° |
| 2026-05-07 14:22 | -23.45090 | -46.53188 | 3270 ft | 147 kts | 71° |
| 2026-05-07 14:22 | -23.44801 | -46.52123 | 3083 ft | 143 kts | 72° |
| 2026-05-07 14:22 | -23.44536 | -46.51072 | 2950 ft | 146 kts | 72° |
| 2026-05-07 14:23 | -23.44236 | -46.50025 | 2731 ft | 144 kts | 71° |
| 2026-05-07 14:23 | -23.43960 | -46.48987 | 2534 ft | 142 kts | 72° |
| 2026-05-07 14:23 | -23.43687 | -46.47986 | 2466 ft | 128 kts | 72° |
| 2026-05-07 14:23 | -23.43499 | -46.47290 | 2465 ft | 63 kts | 74° |
| 2026-05-07 14:24 | -23.43423 | -46.47036 | 2463 ft | 25 kts | 65° |
| 2026-05-07 14:24 | -23.43338 | -46.46905 | 2460 ft | 16 kts | 50° |
| 2026-05-07 14:24 | -23.43266 | -46.46829 | 2457 ft | 13 kts | 44° |
| 2026-05-07 14:24 | -23.43190 | -46.46748 | 2453 ft | 16 kts | 46° |
| 2026-05-07 14:25 | -23.43087 | -46.46718 | 2450 ft | 16 kts | 343° |
| 2026-05-07 14:25 | -23.42970 | -46.46756 | 2448 ft | 18 kts | 345° |
| 2026-05-07 14:25 | -23.42836 | -46.46795 | 2445 ft | 17 kts | 343° |
| 2026-05-07 14:25 | -23.42776 | -46.46879 | 2443 ft | 15 kts | 255° |
| 2026-05-07 14:26 | -23.42807 | -46.46994 | 2444 ft | 16 kts | 254° |
| 2026-05-07 14:26 | -23.42837 | -46.47112 | 2444 ft | 16 kts | 254° |
| 2026-05-07 14:26 | -23.42869 | -46.47228 | 2445 ft | 16 kts | 253° |
| 2026-05-07 14:26 | -23.42901 | -46.47341 | 2445 ft | 15 kts | 253° |
| 2026-05-07 14:27 | -23.42923 | -46.47445 | 2445 ft | 12 kts | 287° |
| 2026-05-07 14:27 | -23.42847 | -46.47500 | 2444 ft | 13 kts | 340° |
| 2026-05-07 14:27 | -23.42779 | -46.47493 | 2443 ft | 7 kts | 65° |
| 2026-05-07 14:27 | -23.42764 | -46.47439 | 2443 ft | 6 kts | 74° |
| 2026-05-07 14:28 | -23.42760 | -46.47425 | 2443 ft | 1 kts | 74° |
| 2026-05-07 14:28 | -23.42757 | -46.47413 | 2443 ft | 1 kts | 73° |
| 2026-05-07 14:28 | -23.42757 | -46.47412 | 2443 ft | 0 kts | 73° |